Ginys del Meteocat

Dades de l'estació automàtica Sant Romà d'Abella

?
?
Resum diari 23:00 TU
Dades diàries de l'estació meteorològica
Temperatura mitjana 3.7 °C
Temperatura màxima 9.0 °C 14:23 TU
Temperatura mínima 1.1 °C 7:50 TU
Humitat relativa mitjana 97%
Precipitació acumulada 0.0 mm
Ratxa màxima del vent (10 m) 9.0 km/h - 207º 14:51 TU
Pressió atmosfèrica mitjana 1024.0 hPa
Irradiació solar global 5.8 MJ/m2

El tram horari està expressat en Temps Universal (TU). Cal sumar una hora en horari d'hivern i dues en horari d'estiu per passar a l'hora oficial.

Sant Romà d'Abella

Metadades estació meteorol´gica
Municipi Isona i Conca Dellà
Comarca Pallars Jussà
Altitud 690 m
Data alta 20.05.1996
Estat actual Operativa
Dades de període
Període
TU
TM
°C
TX
°C
TN
°C
HRM
%
PPT
mm
VVM (10 m)
km/h
DVM (10 m)
graus
VVX (10 m)
km/h
PM
hPa
RS
W/m2
00:00 - 00:30 3.4 3.6 3.3 98 0.0 1.1 45 3.6 1025.8 0
00:30 - 01:00 3.6 3.9 3.4 96 0.0 1.4 47 5.0 1025.6 0
01:00 - 01:30 3.7 3.9 3.3 95 0.0 2.2 173 4.7 1025.2 0
01:30 - 02:00 3.2 3.3 3.2 98 0.0 3.6 319 6.5 1025.4 0
02:00 - 02:30 3.2 3.3 3.1 98 0.0 4.3 136 6.5 1024.9 0
02:30 - 03:00 3.1 3.2 2.9 98 0.0 2.5 283 5.8 1024.7 0
03:00 - 03:30 2.8 3.1 2.6 99 0.0 2.5 319 5.8 1024.5 0
03:30 - 04:00 2.7 3.0 2.3 99 0.0 2.9 29 5.4 1024.3 0
04:00 - 04:30 3.0 3.2 2.6 99 0.0 2.2 58 4.3 1024.1 0
04:30 - 05:00 2.4 2.6 2.3 99 0.0 2.9 116 5.0 1024.4 0
05:00 - 05:30 2.4 2.5 2.3 99 0.0 3.2 89 5.0 1024.4 0
05:30 - 06:00 2.5 2.7 2.5 99 0.0 1.1 71 3.6 1024.5 0
06:00 - 06:30 2.5 2.7 2.4 99 0.0 1.8 337 4.3 1024.6 0
06:30 - 07:00 1.9 2.6 1.6 99 0.0 2.9 31 5.4 1024.8 0
07:00 - 07:30 1.7 1.8 1.6 99 0.0 3.2 50 6.5 1025.1 3
07:30 - 08:00 1.3 1.6 1.1 99 0.0 5.4 78 7.6 1025.3 21
08:00 - 08:30 1.6 2.0 1.3 99 0.0 1.4 341 3.6 1025.3 48
08:30 - 09:00 2.1 2.4 2.0 99 0.0 1.8 268 5.8 1025.3 77
09:00 - 09:30 2.2 2.4 2.1 100 0.0 3.6 47 6.1 1025.5 106
09:30 - 10:00 2.6 2.7 2.4 100 0.0 3.6 167 6.8 1025.3 170
10:00 - 10:30 2.9 3.1 2.6 100 0.0 2.5 187 6.8 1025.4 164
10:30 - 11:00 3.0 3.4 2.7 100 0.0 2.2 293 7.6 1025.4 168
11:00 - 11:30 3.2 3.4 2.8 100 0.0 1.4 163 4.3 1025.1 202
11:30 - 12:00 3.7 3.9 3.4 100 0.0 2.5 209 5.0 1024.5 171
12:00 - 12:30 4.0 4.4 3.5 100 0.0 2.5 149 7.6 1024.0 220
12:30 - 13:00 5.0 5.4 4.4 99 0.0 2.5 212 7.9 1023.2 254
13:00 - 13:30 5.7 6.2 5.3 96 0.0 4.0 249 8.6 1022.7 275
13:30 - 14:00 6.3 7.5 5.5 91 0.0 2.5 253 6.8 1022.1 326
14:00 - 14:30 8.2 9.0 7.4 83 0.0 3.6 215 7.6 1021.4 358
14:30 - 15:00 8.6 9.0 8.1 81 0.0 4.3 206 9.0 1020.9 319
15:00 - 15:30 8.6 8.9 8.2 81 0.0 2.2 235 6.1 1020.9 196
15:30 - 16:00 8.3 8.7 7.9 83 0.0 2.2 208 5.0 1020.9 117
16:00 - 16:30 6.9 8.0 5.7 89 0.0 3.2 257 5.0 1021.2 43
16:30 - 17:00 5.1 5.6 4.9 96 0.0 2.9 18 5.0 1021.8 12
17:00 - 17:30 4.8 5.1 4.3 98 0.0 1.8 33 3.6 1021.9 0
17:30 - 18:00 3.7 4.2 3.2 98 0.0 1.4 211 4.3 1022.4 0
18:00 - 18:30 3.2 4.0 2.4 99 0.0 1.4 81 5.0 1022.8 0
18:30 - 19:00 3.2 4.1 2.7 99 0.0 2.2 94 4.3 1023.3 0
19:00 - 19:30 4.0 4.3 3.6 98 0.0 1.1 16 2.9 1023.3 0
19:30 - 20:00 3.7 3.9 3.6 96 0.0 1.4 199 4.0 1023.7 0
20:00 - 20:30 3.6 3.9 3.2 98 0.0 0.7 226 2.2 1023.8 0
20:30 - 21:00 3.1 3.2 2.8 98 0.0 1.8 313 3.6 1024.2 0
21:00 - 21:30 3.1 3.5 2.9 98 0.0 1.4 220 4.3 1024.2 0
21:30 - 22:00 3.2 3.3 3.1 98 0.0 0.4 211 1.8 1024.3 0
22:00 - 22:30 3.2 3.4 2.7 98 0.0 1.1 212 4.0 1024.3 0
22:30 - 23:00 2.7 2.8 2.5 98 0.0 1.8 261 4.0 1024.3 0
23:00 - 23:30 2.9 3.0 2.8 98 0.0 1.8 9 4.7 1024.1 0

Les dades en taronja només han passat un control de qualitat automàtic. Resta pendent la seva validació definitiva.